.
WxDataArchive / Data Records for 2006-03-18
2006-03-17 March 2006 2006-03-19

Data Records for Saturday, 18 March 2006

Time	Temp	Chill	HIndex	Humid	Dewpt	 Wind 	HiWind	WindDir	Rain 	Barom 
-----	----	-----	------	-----	-----	------	------	-------	-----	----- 
00:00	27.3	27.3	27.3	77	21.1	1	3	338	0.00	30.317 
00:05	27.3	27.3	27.3	77	21.1	1	2	315	0.00	30.317 
00:10	27.2	27.2	27.2	77	21.0	1	2	315	0.00	30.317 
00:15	27.2	27.2	27.2	78	21.3	1	3	315	0.00	30.313 
00:20	27.0	27.0	27.0	78	21.1	1	3	292	0.00	30.313 
00:25	27.0	27.0	27.0	78	21.1	1	2	338	0.00	30.313 
00:30	26.9	26.9	26.9	78	21.0	0	2	270	0.00	30.313 
00:35	26.7	26.7	26.7	78	20.8	1	3	292	0.00	30.313 
00:40	26.7	26.7	26.7	78	20.8	1	4	270	0.00	30.313 
00:45	26.7	26.7	26.7	78	20.8	1	4	270	0.00	30.308 
00:50	26.7	26.7	26.7	78	20.8	1	2	315	0.00	30.308 
00:55	26.6	26.6	26.6	78	20.7	1	3	270	0.00	30.308 
01:00	26.6	26.6	26.6	78	20.7	1	3	338	0.00	30.304 
01:05	26.4	26.4	26.4	78	20.5	1	2	315	0.00	30.304 
01:10	26.4	26.4	26.4	78	20.5	1	3	292	0.00	30.304 
01:15	26.4	26.4	26.4	77	20.2	1	2	292	0.00	30.305 
01:20	26.3	26.3	26.3	77	20.1	1	3	315	0.00	30.305 
01:25	26.3	26.3	26.3	77	20.1	1	4	292	0.00	30.305 
01:30	26.3	26.3	26.3	77	20.1	1	3	270	0.00	30.300 
01:35	26.3	26.3	26.3	77	20.1	0	2	270	0.00	30.300 
01:40	26.1	26.1	26.1	77	19.9	1	4	270	0.00	30.300 
01:45	26.3	26.3	26.3	76	19.8	1	3	292	0.00	30.306 
01:50	26.3	26.3	26.3	76	19.8	1	4	315	0.00	30.306 
01:55	26.4	26.4	26.4	75	19.6	1	3	338	0.00	30.306 
02:00	26.3	26.3	26.3	76	19.8	1	3	338	0.00	30.305 
02:05	26.3	26.3	26.3	76	19.8	1	3	292	0.00	30.305 
02:10	26.1	26.1	26.1	76	19.6	1	3	315	0.00	30.305 
02:15	26.1	26.1	26.1	76	19.6	0	2	315	0.00	30.308 
02:20	26.0	26.0	26.0	76	19.5	1	3	0	0.00	30.308 
02:25	26.0	26.0	26.0	76	19.5	0	1	315	0.00	30.308 
02:30	26.0	26.0	26.0	76	19.5	0	2	315	0.00	30.312 
02:35	25.8	25.8	25.8	76	19.3	1	3	315	0.00	30.312 
02:40	25.8	25.8	25.8	76	19.3	1	3	270	0.00	30.312 
02:45	25.8	25.8	25.8	76	19.3	1	2	315	0.00	30.309 
02:50	25.7	25.7	25.7	76	19.2	0	2	315	0.00	30.309 
02:55	25.6	25.6	25.6	76	19.1	0	2	315	0.00	30.309 
03:00	25.6	25.6	25.6	76	19.1	0	1	315	0.00	30.310 
03:05	25.4	25.4	25.4	76	18.9	0	2	338	0.00	30.310 
03:10	25.4	25.4	25.4	76	18.9	0	2	292	0.00	30.310 
03:15	25.4	25.4	25.4	76	18.9	1	4	270	0.00	30.311 
03:20	25.4	25.4	25.4	76	18.9	0	3	292	0.00	30.311 
03:25	25.3	25.3	25.3	76	18.8	0	2	292	0.00	30.311 
03:30	25.3	25.3	25.3	76	18.8	1	4	338	0.00	30.306 
03:35	25.3	25.3	25.3	76	18.8	1	2	315	0.00	30.306 
03:40	25.1	25.1	25.1	76	18.6	1	2	292	0.00	30.306 
03:45	25.1	25.1	25.1	76	18.6	1	3	292	0.00	30.309 
03:50	25.1	25.1	25.1	75	18.3	1	3	315	0.00	30.309 
03:55	25.0	25.0	25.0	75	18.2	1	5	270	0.00	30.309 
04:00	25.0	25.0	25.0	75	18.2	1	2	315	0.00	30.314 
04:05	24.8	24.8	24.8	75	18.0	0	2	68	0.00	30.314 
04:10	24.8	24.8	24.8	75	18.0	1	4	292	0.00	30.314 
04:15	24.8	24.8	24.8	74	17.7	1	2	292	0.00	30.319 
04:20	24.8	24.8	24.8	74	17.7	1	3	270	0.00	30.319 
04:25	24.7	24.7	24.7	74	17.6	0	2	270	0.00	30.319 
04:30	24.5	24.5	24.5	73	17.1	1	3	315	0.00	30.327 
04:35	24.5	24.5	24.5	73	17.1	1	3	338	0.00	30.327 
04:40	24.4	24.4	24.4	73	17.0	0	2	338	0.00	30.327 
04:45	24.4	24.4	24.4	73	17.0	0	2	338	0.00	30.329 
04:50	24.2	24.2	24.2	73	16.8	0	2	0	0.00	30.329 
04:55	24.2	24.2	24.2	73	16.8	1	3	0	0.00	30.329 
05:00	24.1	24.1	24.1	73	16.7	0	3	270	0.00	30.329 
05:05	23.9	23.9	23.9	72	16.2	0	3	270	0.00	30.329 
05:10	23.9	23.9	23.9	72	16.2	1	2	270	0.00	30.329 
05:15	23.9	23.9	23.9	71	15.9	1	4	338	0.00	30.333 
05:20	23.6	23.6	23.6	72	15.9	0	2	292	0.00	30.333 
05:25	23.5	23.5	23.5	72	15.8	0	2	292	0.00	30.333 
05:30	23.5	23.5	23.5	72	15.8	1	2	292	0.00	30.333 
05:35	23.3	23.3	23.3	72	15.6	1	3	270	0.00	30.333 
05:40	23.2	23.2	23.2	72	15.5	0	2	270	0.00	30.333 
05:45	23.2	23.2	23.2	72	15.5	0	2	0	0.00	30.335 
05:50	23.0	23.0	23.0	72	15.3	0	2	338	0.00	30.335 
05:55	23.0	23.0	23.0	71	15.0	0	2	270	0.00	30.335 
06:00	22.9	22.9	22.9	71	14.9	0	3	270	0.00	30.339 
06:05	22.9	22.9	22.9	71	14.9	0	2	0	0.00	30.339 
06:10	22.7	22.7	22.7	71	14.7	0	2	292	0.00	30.339 
06:15	22.7	22.7	22.7	70	14.4	1	3	270	0.00	30.343 
06:20	22.7	22.7	22.7	70	14.4	0	2	338	0.00	30.343 
06:25	22.7	22.7	22.7	70	14.4	0	2	338	0.00	30.343 
06:30	22.5	22.5	22.5	70	14.2	0	2	315	0.00	30.346 
06:35	22.5	22.5	22.5	69	13.9	0	2	338	0.00	30.346 
06:40	22.5	22.5	22.5	69	13.9	0	2	338	0.00	30.346 
06:45	22.7	22.7	22.7	69	14.1	0	3	292	0.00	30.351 
06:50	22.5	22.5	22.5	69	13.9	0	1	292	0.00	30.351 
06:55	22.5	22.5	22.5	69	13.9	0	2	315	0.00	30.351 
07:00	22.5	22.5	22.5	69	13.9	0	2	315	0.00	30.350 
07:05	22.5	22.5	22.5	69	13.9	0	2	315	0.00	30.350 
07:10	22.7	22.7	22.7	69	14.1	1	6	270	0.00	30.350 
07:15	23.0	23.0	23.0	69	14.4	1	4	270	0.00	30.354 
07:20	23.2	23.2	23.2	69	14.6	1	2	292	0.00	30.354 
07:25	23.5	23.5	23.5	68	14.5	1	3	338	0.00	30.354 
07:30	23.8	23.8	23.8	68	14.8	1	3	292	0.00	30.358 
07:35	23.9	23.9	23.9	68	14.9	1	3	270	0.00	30.358 
07:40	24.2	24.2	24.2	67	14.8	1	3	315	0.00	30.358 
07:45	24.4	24.4	24.4	67	15.0	1	3	338	0.00	30.363 
07:50	24.5	24.5	24.5	66	14.8	2	5	315	0.00	30.363 
07:55	24.5	24.5	24.5	66	14.8	2	10	338	0.00	30.363 
08:00	24.8	24.8	24.8	66	15.1	1	5	338	0.00	30.366 
08:05	25.0	25.0	25.0	65	14.9	2	5	0	0.00	30.366 
08:10	25.3	25.3	25.3	66	15.6	1	4	292	0.00	30.366 
08:15	25.3	25.3	25.3	65	15.2	2	5	315	0.00	30.372 
08:20	25.4	25.4	25.4	65	15.3	2	5	315	0.00	30.372 
08:25	25.6	25.6	25.6	64	15.1	2	5	338	0.00	30.372 
08:30	25.8	25.8	25.8	63	15.0	2	4	338	0.00	30.376 
08:35	26.0	26.0	26.0	63	15.2	2	6	22	0.00	30.376 
08:40	26.1	26.1	26.1	63	15.3	2	5	315	0.00	30.376 
08:45	26.4	26.4	26.4	61	14.8	2	4	0	0.00	30.379 
08:50	26.6	26.6	26.6	61	15.0	2	6	0	0.00	30.379 
08:55	26.6	26.6	26.6	58	13.8	2	4	338	0.00	30.379 
09:00	26.7	26.7	26.7	58	13.9	2	6	0	0.00	30.379 
09:05	26.9	26.9	26.9	57	13.7	2	7	22	0.00	30.379 
09:10	27.5	27.5	27.5	59	15.1	1	4	0	0.00	30.379 
09:15	28.1	28.1	28.1	55	14.0	2	5	315	0.00	30.373 
09:20	28.4	28.4	28.4	54	13.9	2	5	292	0.00	30.373 
09:25	28.1	28.1	28.1	52	12.8	2	5	22	0.00	30.373 
09:30	28.4	28.4	28.4	55	14.3	2	5	22	0.00	30.370 
09:35	28.7	28.7	28.7	53	13.8	2	6	0	0.00	30.370 
09:40	28.7	28.7	28.7	55	14.6	2	9	338	0.00	30.370 
09:45	29.0	29.0	29.0	56	15.3	2	4	22	0.00	30.368 
09:50	29.4	29.4	29.4	54	14.8	2	6	22	0.00	30.368 
09:55	29.7	29.7	29.7	50	13.4	2	7	22	0.00	30.368 
10:00	29.5	29.5	29.5	51	13.6	3	10	338	0.00	30.364 
10:05	30.1	30.1	30.1	51	14.2	2	9	0	0.00	30.364 
10:10	30.3	30.3	30.3	52	14.8	2	6	22	0.00	30.364 
10:15	30.7	30.7	30.7	51	14.7	2	4	0	0.00	30.366 
10:20	30.9	30.9	30.9	47	13.1	3	10	338	0.00	30.366 
10:25	31.0	31.0	31.0	50	14.6	2	6	338	0.00	30.366 
10:30	31.2	31.2	31.2	49	14.3	3	9	292	0.00	30.366 
10:35	31.8	31.8	31.8	49	14.8	2	4	0	0.00	30.366 
10:40	31.8	31.8	31.8	46	13.4	3	6	22	0.00	30.366 
10:45	31.5	31.5	31.5	47	13.6	3	11	22	0.00	30.363 
10:50	31.5	31.5	31.5	50	15.0	2	5	315	0.00	30.363 
10:55	32.1	32.1	32.1	50	15.6	2	5	0	0.00	30.363 
11:00	32.1	32.1	32.1	47	14.2	2	7	0	0.00	30.361 
11:05	32.2	32.2	32.2	47	14.3	2	6	0	0.00	30.361 
11:10	32.7	32.7	32.7	50	16.1	2	5	292	0.00	30.361 
11:15	33.2	33.2	33.2	48	15.7	2	4	292	0.00	30.354 
11:20	33.8	33.8	33.8	49	16.7	2	4	270	0.00	30.354 
11:25	34.1	34.1	34.1	48	16.5	2	5	0	0.00	30.354 
11:30	34.1	34.1	34.1	44	14.5	2	6	338	0.00	30.349 
11:35	34.3	34.3	34.3	48	16.7	2	5	338	0.00	30.349 
11:40	34.1	34.1	34.1	45	15.0	3	7	338	0.00	30.349 
11:45	34.3	34.3	34.3	42	13.6	3	6	338	0.00	30.348 
11:50	34.9	34.9	34.9	48	17.2	2	6	292	0.00	30.348 
11:55	35.3	35.3	35.3	48	17.6	2	7	315	0.00	30.348 
12:00	35.8	35.8	35.8	47	17.6	2	5	338	0.00	30.342 
12:05	35.5	35.5	35.5	43	15.2	2	7	338	0.00	30.342 
12:10	35.3	35.3	35.3	43	15.1	2	6	292	0.00	30.342 
12:15	35.8	35.8	35.8	44	16.0	1	3	22	0.00	30.335 
12:20	36.2	36.2	36.2	38	13.1	3	6	0	0.00	30.335 
12:25	35.9	35.9	35.9	45	16.7	2	5	270	0.00	30.335 
12:30	36.9	36.9	36.9	44	17.0	3	7	270	0.00	30.332 
12:35	36.9	36.9	36.9	42	16.0	2	5	270	0.00	30.332 
12:40	36.9	36.9	36.9	46	18.1	2	6	270	0.00	30.332 
12:45	37.0	33.9	37.0	41	15.5	4	7	270	0.00	30.330 
12:50	36.9	36.9	36.9	42	16.0	3	7	338	0.00	30.330 
12:55	37.0	37.0	37.0	46	18.2	2	6	292	0.00	30.330 
13:00	37.3	37.3	37.3	46	18.4	3	6	270	0.00	30.326 
13:05	37.8	37.8	37.8	44	17.9	2	5	338	0.00	30.326 
13:10	37.3	37.3	37.3	36	12.8	3	7	338	0.00	30.326 
13:15	37.6	37.6	37.6	40	15.5	3	6	292	0.00	30.327 
13:20	37.5	34.4	37.5	39	14.8	4	7	270	0.00	30.327 
13:25	37.9	37.9	37.9	39	15.2	3	7	270	0.00	30.327 
13:30	38.0	38.0	38.0	42	17.0	3	9	338	0.00	30.324 
13:35	37.8	37.8	37.8	42	16.8	2	5	338	0.00	30.324 
13:40	38.6	38.6	38.6	44	18.6	2	6	270	0.00	30.324 
13:45	39.2	39.2	39.2	47	20.7	2	5	315	0.00	30.313 
13:50	39.5	39.5	39.5	38	16.0	2	5	270	0.00	30.313 
13:55	39.2	39.2	39.2	38	15.8	3	7	338	0.00	30.313 
14:00	39.1	39.1	39.1	41	17.4	3	9	270	0.00	30.306 
14:05	39.2	39.2	39.2	39	16.3	2	5	315	0.00	30.306 
14:10	39.6	39.6	39.6	41	17.9	3	6	270	0.00	30.306 
14:15	39.9	39.9	39.9	41	18.1	2	4	338	0.00	30.294 
14:20	40.1	40.1	40.1	35	14.7	3	7	315	0.00	30.294 
14:25	39.8	39.8	39.8	37	15.7	3	6	270	0.00	30.294 
14:30	40.5	40.5	40.5	41	18.7	3	7	248	0.00	30.286 
14:35	40.5	40.5	40.5	36	15.7	2	4	0	0.00	30.286 
14:40	40.1	40.1	40.1	37	15.9	3	9	22	0.00	30.286 
14:45	40.1	40.1	40.1	36	15.3	3	7	292	0.00	30.282 
14:50	40.3	40.3	40.3	38	16.7	2	5	338	0.00	30.282 
14:55	40.5	40.5	40.5	37	16.3	3	7	270	0.00	30.282 
15:00	40.8	40.8	40.8	35	15.3	3	9	315	0.00	30.278 
15:05	40.5	40.5	40.5	35	15.0	2	7	338	0.00	30.278 
15:10	40.9	40.9	40.9	38	17.3	2	4	22	0.00	30.278 
15:15	41.3	41.3	41.3	35	15.7	3	9	270	0.00	30.273 
15:20	41.6	41.6	41.6	37	17.3	3	6	270	0.00	30.273 
15:25	41.3	41.3	41.3	35	15.7	3	7	270	0.00	30.273 
15:30	41.3	41.3	41.3	37	17.0	3	11	315	0.00	30.264 
15:35	41.3	41.3	41.3	35	15.7	3	10	270	0.00	30.264 
15:40	41.2	41.2	41.2	36	16.3	3	10	338	0.00	30.264 
15:45	40.9	40.9	40.9	34	14.7	3	9	338	0.00	30.261 
15:50	41.2	41.2	41.2	33	14.3	2	6	270	0.00	30.261 
15:55	41.3	41.3	41.3	34	15.1	3	6	338	0.00	30.261 
16:00	41.1	41.1	41.1	35	15.6	2	4	338	0.00	30.259 
16:05	41.3	41.3	41.3	35	15.7	3	6	270	0.00	30.259 
16:10	41.3	41.3	41.3	35	15.7	2	7	270	0.00	30.259 
16:15	41.3	41.3	41.3	37	17.0	3	6	270	0.00	30.254 
16:20	41.1	41.1	41.1	35	15.6	3	9	315	0.00	30.254 
16:25	40.8	40.8	40.8	37	16.6	3	7	292	0.00	30.254 
16:30	40.5	40.5	40.5	34	14.4	3	10	315	0.00	30.254 
16:35	40.3	40.3	40.3	34	14.2	3	8	292	0.00	30.254 
16:40	40.3	40.3	40.3	36	15.5	3	10	338	0.00	30.254 
16:45	40.3	40.3	40.3	36	15.5	2	4	338	0.00	30.255 
16:50	40.6	40.6	40.6	36	15.8	3	6	270	0.00	30.255 
16:55	40.2	40.2	40.2	35	14.8	3	6	315	0.00	30.255 
17:00	40.1	40.1	40.1	37	15.9	3	11	270	0.00	30.252 
17:05	40.2	40.2	40.2	35	14.8	3	9	270	0.00	30.252 
17:10	39.9	39.9	39.9	34	13.8	3	6	270	0.00	30.252 
17:15	39.8	39.8	39.8	37	15.7	2	5	338	0.00	30.259 
17:20	39.3	39.3	39.3	35	14.0	3	6	338	0.00	30.259 
17:25	39.3	39.3	39.3	34	13.3	2	6	338	0.00	30.259 
17:30	38.9	36.0	38.9	34	13.0	4	9	270	0.00	30.258 
17:35	38.6	38.6	38.6	35	13.3	3	9	315	0.00	30.258 
17:40	38.5	38.5	38.5	36	13.9	3	6	270	0.00	30.258 
17:45	38.3	38.3	38.3	38	14.9	3	6	292	0.00	30.263 
17:50	38.0	38.0	38.0	37	14.1	3	9	338	0.00	30.263 
17:55	37.8	37.8	37.8	38	14.5	3	10	315	0.00	30.263 
18:00	37.5	37.5	37.5	39	14.8	2	6	315	0.00	30.263 
18:05	37.3	37.3	37.3	40	15.2	2	4	270	0.00	30.263 
18:10	37.2	37.2	37.2	42	16.2	2	5	315	0.00	30.263 
18:15	36.9	36.9	36.9	42	16.0	2	7	315	0.00	30.260 
18:20	36.8	36.8	36.8	42	15.9	2	6	292	0.00	30.260 
18:25	36.5	36.5	36.5	43	16.2	2	9	315	0.00	30.260 
18:30	36.2	36.2	36.2	43	15.9	2	6	270	0.00	30.269 
18:35	35.9	35.9	35.9	44	16.1	3	7	270	0.00	30.269 
18:40	35.6	35.6	35.6	45	16.4	2	6	292	0.00	30.269 
18:45	35.2	35.2	35.2	43	15.0	2	5	270	0.00	30.271 
18:50	34.9	34.9	34.9	44	15.2	2	5	338	0.00	30.271 
18:55	34.7	34.7	34.7	45	15.6	2	7	292	0.00	30.271 
19:00	34.4	34.4	34.4	46	15.8	2	4	338	0.00	30.272 
19:05	34.1	34.1	34.1	45	15.0	2	4	338	0.00	30.272 
19:10	33.8	33.8	33.8	46	15.2	1	3	338	0.00	30.272 
19:15	33.7	33.7	33.7	48	16.1	2	4	292	0.00	30.271 
19:20	33.5	33.5	33.5	48	15.9	2	7	270	0.00	30.271 
19:25	33.4	33.4	33.4	49	16.3	2	5	270	0.00	30.271 
19:30	33.1	33.1	33.1	48	15.6	2	4	292	0.00	30.272 
19:35	32.8	32.8	32.8	48	15.3	1	4	270	0.00	30.272 
19:40	32.7	32.7	32.7	48	15.2	2	6	270	0.00	30.272 
19:45	32.5	32.5	32.5	49	15.5	1	3	315	0.00	30.273 
19:50	32.4	32.4	32.4	47	14.4	2	6	270	0.00	30.273 
19:55	32.2	32.2	32.2	48	14.7	1	4	248	0.00	30.273 
20:00	31.9	31.9	31.9	47	14.0	1	6	270	0.00	30.279 
20:05	31.9	31.9	31.9	47	14.0	3	7	270	0.00	30.279 
20:10	31.8	31.8	31.8	48	14.4	2	4	270	0.00	30.279 
20:15	31.5	31.5	31.5	48	14.1	1	3	338	0.00	30.273 
20:20	31.3	31.3	31.3	49	14.4	1	4	292	0.00	30.273 
20:25	31.0	31.0	31.0	49	14.1	1	3	292	0.00	30.273 
20:30	30.9	30.9	30.9	50	14.5	1	4	315	0.00	30.274 
20:35	30.6	30.6	30.6	51	14.6	1	3	315	0.00	30.274 
20:40	30.4	30.4	30.4	53	15.3	2	5	270	0.00	30.274 
20:45	30.4	30.4	30.4	53	15.3	3	6	292	0.00	30.288 
20:50	30.3	30.3	30.3	54	15.7	2	6	292	0.00	30.288 
20:55	30.1	30.1	30.1	55	15.9	2	5	315	0.00	30.288 
21:00	30.0	30.0	30.0	56	16.2	2	5	315	0.00	30.291 
21:05	29.7	29.7	29.7	57	16.4	2	9	292	0.00	30.291 
21:10	29.7	25.4	29.7	57	16.4	4	7	338	0.00	30.291 
21:15	29.4	29.4	29.4	58	16.5	3	10	338	0.00	30.286 
21:20	29.3	29.3	29.3	58	16.4	2	5	0	0.00	30.286 
21:25	29.1	29.1	29.1	58	16.2	3	7	270	0.00	30.286 
21:30	29.0	29.0	29.0	59	16.5	3	5	292	0.00	30.288 
21:35	28.8	28.8	28.8	59	16.3	2	6	292	0.00	30.288 
21:40	28.7	28.7	28.7	59	16.2	2	6	292	0.00	30.288 
21:45	28.5	28.5	28.5	60	16.4	2	6	315	0.00	30.287 
21:50	28.4	28.4	28.4	60	16.3	2	6	292	0.00	30.287 
21:55	28.2	28.2	28.2	60	16.1	2	6	270	0.00	30.287 
22:00	28.1	28.1	28.1	60	16.0	2	7	315	0.00	30.287 
22:05	27.9	27.9	27.9	61	16.2	1	4	315	0.00	30.287 
22:10	27.9	27.9	27.9	61	16.2	1	4	292	0.00	30.287 
22:15	27.9	27.9	27.9	61	16.2	1	4	292	0.00	30.287 
22:20	27.8	27.8	27.8	61	16.1	1	4	315	0.00	30.287 
22:25	27.8	27.8	27.8	61	16.1	1	3	315	0.00	30.287 
22:30	27.6	27.6	27.6	60	15.6	1	3	315	0.00	30.293 
22:35	27.6	27.6	27.6	60	15.6	1	3	315	0.00	30.293 
22:40	27.6	27.6	27.6	60	15.6	1	3	292	0.00	30.293 
22:45	27.5	27.5	27.5	59	15.1	1	4	338	0.00	30.295 
22:50	27.5	27.5	27.5	59	15.1	1	2	270	0.00	30.295 
22:55	27.5	27.5	27.5	59	15.1	1	5	248	0.00	30.295 
23:00	27.3	27.3	27.3	59	14.9	1	2	338	0.00	30.296 
23:05	27.2	27.2	27.2	58	14.4	1	6	270	0.00	30.296 
23:10	27.2	27.2	27.2	58	14.4	1	3	292	0.00	30.296 
23:15	27.2	27.2	27.2	57	14.0	1	3	292	0.00	30.286 
23:20	27.2	27.2	27.2	58	14.4	1	4	270	0.00	30.286 
23:25	27.0	27.0	27.0	58	14.2	1	3	270	0.00	30.286 
23:30	26.9	26.9	26.9	58	14.1	1	2	270	0.00	30.284 
23:35	26.9	26.9	26.9	57	13.7	1	4	292	0.00	30.284 
23:40	26.9	26.9	26.9	57	13.7	1	3	315	0.00	30.284 
23:45	26.9	26.9	26.9	57	13.7	1	3	315	0.00	30.285 
23:50	26.9	26.9	26.9	57	13.7	1	4	292	0.00	30.285 
23:55	26.7	26.7	26.7	57	13.5	0	2	292	0.00	30.285 

CoCoRaHS
IN-AL-39
A2 Web Hosting
Creative Commons License
GoDaddy
Look for:

loaded 2017-12-13 19:37:17 • last modified 2010-11-18 10:43:29
Privacy PolicyDisclaimer
• wx.awcolley.com is powered by PmWiki v.2002016 •
• all content (unless otherwise noted) © 2017 A W Colley